Time;durP1;ratioP1;P1;durP2;ratioP2;P2;SDS_P1;SDS_P2;PMS_P1;PMS_P2;Temp;Humidity;BMP_temperature;BMP_pressure;BME280_temperature;BME280_humidity;BME280_pressure;Samples;Min_cycle;Max_cycle;Signal;HPM_P1;HPM_P2
2022/08/10 00:00:20;;;;;;;0.00;0.00;;;17.30;77.30;;;;;;5018311;28;20080;-65
2022/08/10 00:02:47;;;;;;;0.00;0.00;;;17.30;77.90;;;;;;5028965;28;20041;-64
2022/08/10 00:05:13;;;;;;;0.00;0.00;;;17.30;78.10;;;;;;5029078;28;20045;-65
2022/08/10 00:07:38;;;;;;;0.00;0.00;;;17.30;78.00;;;;;;5011172;28;20478;-65
2022/08/10 00:10:04;;;;;;;0.00;0.00;;;17.30;78.10;;;;;;5028591;28;20441;-65
2022/08/10 00:12:30;;;;;;;0.00;0.00;;;17.30;77.80;;;;;;5028873;28;20042;-65
2022/08/10 00:14:55;;;;;;;0.00;0.00;;;17.30;78.00;;;;;;5028819;28;20045;-66
2022/08/10 00:17:21;;;;;;;0.00;0.00;;;17.30;77.90;;;;;;5028297;28;20414;-66
2022/08/10 00:19:47;;;;;;;0.00;0.00;;;17.30;78.20;;;;;;5028611;28;20067;-65
2022/08/10 00:22:12;;;;;;;0.00;0.00;;;17.30;78.10;;;;;;5032008;28;20046;-66
2022/08/10 00:24:38;;;;;;;0.00;0.00;;;17.40;78.30;;;;;;5031331;28;20414;-65
2022/08/10 00:27:04;;;;;;;0.00;0.00;;;17.30;78.80;;;;;;5019984;28;20124;-65
2022/08/10 00:29:29;;;;;;;0.00;0.00;;;17.40;78.10;;;;;;5014580;28;20046;-65
2022/08/10 00:31:55;;;;;;;0.00;0.00;;;17.40;78.60;;;;;;5032425;28;20449;-65
2022/08/10 00:34:20;;;;;;;0.00;0.00;;;17.40;78.30;;;;;;5032810;28;20051;-65
2022/08/10 00:36:46;;;;;;;0.00;0.00;;;17.30;77.90;;;;;;5032173;28;20092;-65
2022/08/10 00:39:12;;;;;;;0.00;0.00;;;17.30;77.80;;;;;;5032865;28;20124;-65
2022/08/10 00:41:37;;;;;;;0.00;0.00;;;17.30;77.80;;;;;;5032562;28;20129;-65
2022/08/10 00:44:03;;;;;;;0.00;0.00;;;17.20;77.90;;;;;;5033222;28;20045;-65
2022/08/10 00:46:29;;;;;;;0.00;0.00;;;17.20;78.00;;;;;;5033377;28;20049;-65
2022/08/10 00:48:55;;;;;;;0.00;0.00;;;17.10;78.30;;;;;;5033604;28;20037;-65
2022/08/10 00:51:20;;;;;;;0.00;0.00;;;17.10;78.30;;;;;;5023356;28;20103;-65
2022/08/10 00:53:46;;;;;;;0.00;0.00;;;17.10;78.80;;;;;;5033342;28;20644;-66
2022/08/10 00:56:12;;;;;;;0.00;0.00;;;17.10;78.70;;;;;;5032151;28;20471;-65
2022/08/10 00:58:38;;;;;;;0.00;0.00;;;17.10;78.80;;;;;;5032393;28;20068;-65
2022/08/10 01:01:03;;;;;;;0.00;0.00;;;17.10;79.00;;;;;;5031626;28;20087;-66
2022/08/10 01:03:29;;;;;;;0.00;0.00;;;17.00;79.10;;;;;;5032365;28;20041;-66
2022/08/10 01:06:14;;;;;;;0.00;0.00;;;17.00;79.20;;;;;;5031799;28;20033;-65
2022/08/10 01:08:48;;;;;;;0.00;0.00;;;17.00;79.40;;;;;;5032072;28;20132;-65
2022/08/10 01:11:20;;;;;;;0.10;0.10;;;17.00;79.40;;;;;;5031797;28;20056;-66
2022/08/10 01:13:58;;;;;;;;;;;17.10;79.60;;;;;;5032755;28;20052;-66
2022/08/10 01:16:35;;;;;;;1.27;1.17;;;17.00;79.40;;;;;;5031969;28;20404;-65
2022/08/10 01:19:26;;;;;;;0.00;0.00;;;17.00;79.10;;;;;;5032100;28;20052;-66
2022/08/10 01:22:17;;;;;;;0.00;0.00;;;16.90;79.60;;;;;;5031766;28;20445;-66
2022/08/10 01:25:05;;;;;;;0.00;0.00;;;17.00;79.90;;;;;;5031320;28;20053;-65
2022/08/10 01:27:53;;;;;;;0.00;0.00;;;16.90;80.10;;;;;;5031826;28;20060;-66
2022/08/10 01:30:22;;;;;;;0.00;0.00;;;16.90;80.20;;;;;;5023965;28;20141;-65
2022/08/10 01:32:56;;;;;;;0.00;0.00;;;16.90;79.90;;;;;;5030922;28;20130;-66
2022/08/10 01:35:43;;;;;;;0.43;0.43;;;16.90;80.00;;;;;;5031139;28;20056;-65
2022/08/10 01:38:21;;;;;;;0.00;0.00;;;16.80;80.20;;;;;;5031334;28;20044;-66
2022/08/10 01:41:08;;;;;;;0.00;0.00;;;16.90;80.40;;;;;;5030524;28;20072;-66
2022/08/10 01:43:41;;;;;;;0.00;0.00;;;16.90;80.50;;;;;;5031605;28;20037;-65
2022/08/10 01:46:09;;;;;;;0.00;0.00;;;16.80;81.00;;;;;;5031266;28;20054;-65
2022/08/10 01:48:40;;;;;;;0.00;0.00;;;16.90;80.80;;;;;;5031310;28;20045;-65
2022/08/10 01:51:31;;;;;;;0.00;0.00;;;16.90;80.90;;;;;;5030554;28;20077;-67
2022/08/10 01:54:01;;;;;;;0.00;0.00;;;16.90;81.10;;;;;;5030727;28;20077;-65
2022/08/10 01:56:31;;;;;;;0.00;0.00;;;16.90;81.20;;;;;;4996857;28;20188;-66
2022/08/10 01:59:01;;;;;;;0.00;0.00;;;16.90;81.10;;;;;;5031491;28;20049;-66
2022/08/10 02:01:31;;;;;;;0.00;0.00;;;16.90;81.30;;;;;;5030118;28;20053;-66
2022/08/10 02:04:02;;;;;;;0.00;0.00;;;17.00;81.60;;;;;;5029885;28;20617;-66
2022/08/10 02:06:29;;;;;;;0.00;0.00;;;16.90;81.50;;;;;;5030595;28;20084;-65
2022/08/10 02:08:57;;;;;;;0.00;0.00;;;17.00;81.90;;;;;;5030029;28;20044;-66
2022/08/10 02:11:27;;;;;;;0.00;0.00;;;17.00;81.20;;;;;;5020860;28;20125;-65
2022/08/10 02:13:55;;;;;;;0.00;0.00;;;17.00;81.60;;;;;;5004446;28;20157;-65
2022/08/10 02:16:23;;;;;;;0.00;0.00;;;17.00;81.20;;;;;;5030553;28;20089;-66
2022/08/10 02:18:51;;;;;;;0.00;0.00;;;17.00;81.20;;;;;;5030733;28;20472;-66
2022/08/10 02:21:18;;;;;;;0.00;0.00;;;17.00;81.10;;;;;;5022487;28;20050;-66
2022/08/10 02:23:45;;;;;;;0.00;0.00;;;17.00;80.80;;;;;;5026666;28;20100;-67
2022/08/10 02:26:12;;;;;;;0.00;0.00;;;16.90;80.40;;;;;;5030363;28;20053;-65
2022/08/10 02:28:39;;;;;;;0.00;0.00;;;16.90;81.20;;;;;;5012685;28;20092;-66
2022/08/10 02:31:14;;;;;;;0.00;0.00;;;16.80;81.60;;;;;;5030018;28;20049;-66
2022/08/10 02:33:45;;;;;;;0.00;0.00;;;16.80;81.90;;;;;;5030690;28;20053;-65
2022/08/10 02:36:11;;;;;;;0.10;0.10;;;16.80;82.00;;;;;;5014602;28;20049;-65
2022/08/10 02:38:48;;;;;;;0.00;0.00;;;16.90;82.00;;;;;;5016361;28;20037;-65
2022/08/10 02:41:31;;;;;;;0.00;0.00;;;16.90;82.20;;;;;;5029977;28;20383;-65
2022/08/10 02:44:15;;;;;;;0.00;0.00;;;16.90;82.30;;;;;;5009982;28;20499;-65
2022/08/10 02:46:47;;;;;;;0.00;0.00;;;16.90;82.10;;;;;;5019253;28;20038;-66
2022/08/10 02:49:20;;;;;;;0.00;0.00;;;16.90;82.10;;;;;;5029923;28;20049;-66
2022/08/10 02:51:53;;;;;;;0.00;0.00;;;16.90;82.00;;;;;;5022582;28;20048;-66
2022/08/10 02:54:25;;;;;;;0.00;0.00;;;16.90;81.70;;;;;;5029757;28;20120;-66
2022/08/10 02:56:57;;;;;;;0.00;0.00;;;16.90;81.80;;;;;;5030067;28;20081;-66
2022/08/10 02:59:24;;;;;;;;;;;16.80;81.80;;;;;;5030240;28;20042;-65
2022/08/10 03:01:54;;;;;;;0.00;0.00;;;16.90;81.70;;;;;;5029706;28;19974;-65
2022/08/10 03:04:33;;;;;;;0.00;0.00;;;16.90;81.70;;;;;;5029647;28;20600;-65
2022/08/10 03:07:02;;;;;;;0.20;0.20;;;16.80;81.70;;;;;;5029379;28;20816;-65
2022/08/10 03:09:30;;;;;;;0.00;0.00;;;16.80;81.60;;;;;;5028834;28;20053;-65
2022/08/10 03:11:57;;;;;;;0.00;0.00;;;16.80;81.50;;;;;;5029249;28;20048;-65
2022/08/10 03:14:25;;;;;;;0.00;0.00;;;16.80;81.70;;;;;;5029700;28;20561;-66
2022/08/10 03:16:53;;;;;;;0.00;0.00;;;16.70;81.50;;;;;;5029339;28;20348;-65
2022/08/10 03:19:19;;;;;;;0.00;0.00;;;16.70;81.70;;;;;;5028592;28;20095;-66
2022/08/10 03:21:47;;;;;;;0.00;0.00;;;16.70;81.90;;;;;;5010777;28;20073;-66
2022/08/10 03:24:13;;;;;;;0.38;0.38;;;16.70;82.00;;;;;;5029357;28;20042;-65
2022/08/10 03:26:39;;;;;;;2.08;1.45;;;16.60;82.10;;;;;;5029344;28;20124;-66
2022/08/10 03:29:07;;;;;;;0.00;0.00;;;16.70;82.10;;;;;;5029220;28;20099;-65
2022/08/10 03:31:33;;;;;;;0.05;0.05;;;16.60;82.40;;;;;;5011050;28;20048;-66
2022/08/10 03:34:01;;;;;;;0.00;0.00;;;16.60;82.50;;;;;;5027970;28;20042;-65
2022/08/10 03:36:27;;;;;;;0.00;0.00;;;16.60;82.70;;;;;;5029370;28;20558;-66
2022/08/10 03:38:53;;;;;;;0.00;0.00;;;16.70;82.80;;;;;;5028868;28;20088;-65
2022/08/10 03:41:25;;;;;;;0.00;0.00;;;16.70;82.60;;;;;;5014129;28;20049;-66
2022/08/10 03:43:52;;;;;;;0.00;0.00;;;16.70;82.60;;;;;;5024650;28;20045;-65
2022/08/10 03:46:20;;;;;;;0.00;0.00;;;16.60;82.80;;;;;;5026802;28;20092;-66
2022/08/10 03:48:50;;;;;;;0.10;0.10;;;16.60;82.80;;;;;;5029430;28;20042;-66
2022/08/10 03:51:18;;;;;;;0.00;0.00;;;16.60;82.90;;;;;;5028454;28;20044;-66
2022/08/10 03:53:44;;;;;;;0.00;0.00;;;16.50;82.80;;;;;;5028314;28;20057;-66
2022/08/10 03:56:09;;;;;;;0.00;0.00;;;16.50;82.70;;;;;;5019316;28;20053;-65
2022/08/10 03:58:35;;;;;;;0.10;0.10;;;16.40;82.60;;;;;;5028798;28;20379;-65
2022/08/10 04:01:01;;;;;;;0.00;0.00;;;16.30;82.70;;;;;;5028319;28;20046;-66
2022/08/10 04:03:27;;;;;;;0.00;0.00;;;16.20;82.60;;;;;;5028925;28;20056;-66
2022/08/10 04:05:53;;;;;;;0.03;0.03;;;16.20;82.60;;;;;;5028185;28;20041;-65
2022/08/10 04:08:19;;;;;;;0.10;0.10;;;16.10;82.70;;;;;;5028866;28;20059;-65
2022/08/10 04:10:44;;;;;;;0.00;0.00;;;16.10;82.70;;;;;;5028613;28;20422;-65
2022/08/10 04:13:10;;;;;;;0.00;0.00;;;16.10;82.80;;;;;;5028693;28;20053;-65
2022/08/10 04:15:36;;;;;;;0.00;0.00;;;16.10;83.00;;;;;;5027769;28;20042;-64
2022/08/10 04:18:01;;;;;;;0.00;0.00;;;16.00;83.00;;;;;;5029090;28;20040;-62
2022/08/10 04:20:36;;;;;;;0.00;0.00;;;16.00;83.00;;;;;;5028108;28;20171;-65
2022/08/10 04:23:07;;;;;;;0.17;0.17;;;16.00;83.20;;;;;;5024224;28;20151;-65
2022/08/10 04:25:34;;;;;;;0.00;0.00;;;15.90;83.10;;;;;;5023691;28;20041;-65
2022/08/10 04:28:02;;;;;;;0.10;0.10;;;15.90;83.30;;;;;;5004919;28;20081;-65
2022/08/10 04:30:33;;;;;;;0.00;0.00;;;15.80;83.30;;;;;;5020956;28;20192;-65
2022/08/10 04:33:01;;;;;;;0.00;0.00;;;15.80;83.40;;;;;;5009221;28;20037;-65
2022/08/10 04:35:28;;;;;;;0.00;0.00;;;15.80;83.60;;;;;;5010979;28;20045;-65
2022/08/10 04:37:56;;;;;;;0.03;0.03;;;15.80;83.50;;;;;;5023669;28;20037;-66
2022/08/10 04:40:22;;;;;;;0.00;0.00;;;15.70;83.60;;;;;;5017554;28;20491;-65
2022/08/10 04:42:48;;;;;;;0.00;0.00;;;15.80;83.70;;;;;;5032944;28;20040;-65
2022/08/10 04:45:14;;;;;;;0.00;0.00;;;15.80;83.90;;;;;;5025899;28;20042;-65
2022/08/10 04:47:40;;;;;;;0.00;0.00;;;15.80;84.30;;;;;;5026366;28;20044;-65
2022/08/10 04:50:06;;;;;;;0.10;0.10;;;15.80;83.90;;;;;;5003651;28;21890;-65
2022/08/10 04:52:32;;;;;;;0.10;0.10;;;15.80;83.90;;;;;;5018691;28;20057;-65
2022/08/10 04:54:58;;;;;;;0.00;0.00;;;15.80;84.20;;;;;;5007868;28;20049;-66
2022/08/10 04:57:23;;;;;;;0.00;0.00;;;15.80;84.30;;;;;;5016094;28;20072;-66
2022/08/10 04:59:49;;;;;;;0.00;0.00;;;15.80;84.40;;;;;;5017146;28;20072;-65
2022/08/10 05:02:15;;;;;;;0.05;0.05;;;15.90;84.50;;;;;;5023916;28;20052;-65
2022/08/10 05:04:41;;;;;;;0.00;0.00;;;15.90;84.30;;;;;;5009002;28;20038;-65
2022/08/10 05:07:11;;;;;;;0.00;0.00;;;16.00;84.40;;;;;;5025656;28;20037;-65
2022/08/10 05:09:41;;;;;;;0.00;0.00;;;16.00;84.50;;;;;;5031603;28;20045;-65
2022/08/10 05:12:07;;;;;;;0.10;0.10;;;16.00;84.50;;;;;;5031722;28;20048;-66
2022/08/10 05:14:33;;;;;;;0.00;0.00;;;16.00;84.80;;;;;;5031671;28;20502;-65
2022/08/10 05:16:59;;;;;;;0.00;0.00;;;16.10;84.60;;;;;;5031959;28;20037;-66
2022/08/10 05:19:27;;;;;;;0.00;0.00;;;16.10;84.70;;;;;;5031290;28;20049;-65
2022/08/10 05:21:53;;;;;;;0.00;0.00;;;16.10;84.60;;;;;;5030427;28;20589;-65
2022/08/10 05:24:18;;;;;;;0.10;0.10;;;16.20;84.80;;;;;;5013941;28;20053;-65
2022/08/10 05:26:44;;;;;;;0.00;0.00;;;16.20;84.80;;;;;;5031361;28;20033;-65
2022/08/10 05:29:10;;;;;;;0.00;0.00;;;16.20;85.00;;;;;;5030997;28;20041;-65
2022/08/10 05:31:35;;;;;;;0.08;0.08;;;16.30;85.20;;;;;;5031235;28;20053;-66
2022/08/10 05:34:01;;;;;;;0.00;0.00;;;16.40;85.00;;;;;;5029693;28;20048;-65
2022/08/10 05:36:28;;;;;;;0.20;0.20;;;16.40;84.90;;;;;;5020688;28;20530;-65
2022/08/10 05:38:54;;;;;;;0.00;0.00;;;16.50;84.90;;;;;;5031053;28;20052;-65
2022/08/10 05:41:20;;;;;;;0.00;0.00;;;16.50;85.10;;;;;;5031803;28;20084;-65
2022/08/10 05:43:46;;;;;;;0.00;0.00;;;16.60;85.00;;;;;;5031166;28;20038;-65
2022/08/10 05:46:12;;;;;;;0.00;0.00;;;16.60;85.30;;;;;;5030237;28;20045;-65
2022/08/10 05:48:39;;;;;;;0.00;0.00;;;16.70;85.70;;;;;;5030513;28;20038;-65
2022/08/10 05:51:05;;;;;;;0.20;0.20;;;16.70;85.50;;;;;;5030092;28;20545;-65
2022/08/10 05:53:33;;;;;;;0.00;0.00;;;16.80;85.20;;;;;;5030796;28;20058;-65
2022/08/10 05:55:59;;;;;;;0.00;0.00;;;16.80;85.50;;;;;;5030515;28;20517;-65
2022/08/10 05:58:26;;;;;;;0.00;0.00;;;16.90;85.60;;;;;;5030843;28;20048;-66
2022/08/10 06:00:54;;;;;;;0.00;0.00;;;17.00;85.80;;;;;;5029486;28;20053;-65
2022/08/10 06:03:28;;;;;;;0.80;0.65;;;17.00;85.60;;;;;;5030781;28;20505;-66
2022/08/10 06:05:55;;;;;;;0.20;0.20;;;17.10;85.50;;;;;;5030186;28;20033;-65
2022/08/10 06:08:25;;;;;;;0.00;0.00;;;17.10;85.70;;;;;;5037315;28;20064;-66
2022/08/10 06:10:55;;;;;;;0.00;0.00;;;17.20;85.70;;;;;;5044468;28;20509;-66
2022/08/10 06:16:12;;;;;;;0.00;0.00;;;17.30;86.40;;;;;;5030747;28;20049;-65
2022/08/10 06:18:38;;;;;;;2.17;0.60;;;17.40;86.30;;;;;;5026076;28;20383;-66
2022/08/10 06:21:05;;;;;;;0.00;0.00;;;17.50;85.90;;;;;;5019995;28;20092;-66
2022/08/10 06:23:32;;;;;;;0.10;0.10;;;17.60;85.90;;;;;;5021329;28;20037;-66
2022/08/10 06:25:58;;;;;;;0.08;0.08;;;17.60;85.80;;;;;;4990905;28;20033;-69
2022/08/10 06:28:27;;;;;;;0.03;0.03;;;17.60;85.80;;;;;;5023897;28;20103;-68
2022/08/10 06:30:54;;;;;;;0.00;0.00;;;17.80;85.90;;;;;;5014755;28;20050;-68
2022/08/10 06:33:22;;;;;;;0.00;0.00;;;17.80;85.80;;;;;;5026209;28;20041;-68
2022/08/10 06:35:52;;;;;;;0.00;0.00;;;17.90;85.70;;;;;;5038572;28;20041;-68
2022/08/10 06:38:20;;;;;;;0.20;0.20;;;18.00;85.70;;;;;;5049870;28;20055;-68
2022/08/10 06:40:47;;;;;;;0.00;0.00;;;18.10;85.30;;;;;;5023789;28;20049;-68
2022/08/10 06:43:17;;;;;;;0.00;0.00;;;18.10;85.40;;;;;;5029735;28;20063;-68
2022/08/10 06:45:47;;;;;;;0.00;0.00;;;18.10;85.40;;;;;;5026617;28;20037;-69
2022/08/10 06:48:33;;;;;;;0.00;0.00;;;18.20;85.30;;;;;;5029815;28;20092;-69
2022/08/10 06:51:05;;;;;;;0.00;0.00;;;18.30;85.10;;;;;;5036911;28;20048;-69
2022/08/10 06:53:43;;;;;;;0.00;0.00;;;18.40;85.20;;;;;;5027237;28;20133;-65
2022/08/10 06:56:15;;;;;;;0.00;0.00;;;18.50;85.10;;;;;;5037616;28;20063;-68
2022/08/10 06:58:50;;;;;;;0.08;0.08;;;18.60;85.10;;;;;;5050035;28;20056;-65
2022/08/10 07:01:19;;;;;;;0.10;0.10;;;18.60;85.20;;;;;;5035781;28;20049;-71
2022/08/10 07:03:52;;;;;;;0.00;0.00;;;18.70;84.70;;;;;;5030693;28;20154;-70
2022/08/10 07:06:19;;;;;;;0.00;0.00;;;18.80;84.40;;;;;;5016524;28;20049;-69
2022/08/10 07:08:46;;;;;;;0.00;0.00;;;18.90;84.30;;;;;;5009972;28;20068;-66
2022/08/10 07:11:13;;;;;;;0.00;0.00;;;19.10;83.40;;;;;;5026585;28;20126;-66
2022/08/10 07:13:40;;;;;;;0.00;0.00;;;19.20;83.30;;;;;;5018288;28;20056;-68
2022/08/10 07:16:12;;;;;;;0.00;0.00;;;19.20;83.20;;;;;;5026878;28;20053;-71
2022/08/10 07:18:40;;;;;;;0.00;0.00;;;19.30;83.00;;;;;;5002958;28;20041;-69
2022/08/10 07:21:07;;;;;;;0.00;0.00;;;19.50;82.90;;;;;;5029070;28;20052;-72
2022/08/10 07:23:34;;;;;;;0.00;0.00;;;19.50;82.50;;;;;;5010632;28;20048;-71
2022/08/10 07:26:00;;;;;;;0.00;0.00;;;19.60;82.00;;;;;;5037020;28;20407;-71
2022/08/10 07:28:31;;;;;;;0.00;0.00;;;19.70;81.70;;;;;;5027287;28;20041;-68
2022/08/10 07:30:58;;;;;;;0.00;0.00;;;19.80;81.30;;;;;;5031788;28;20162;-68
2022/08/10 07:33:25;;;;;;;0.00;0.00;;;20.00;81.20;;;;;;5032233;28;20096;-67
2022/08/10 07:35:51;;;;;;;0.00;0.00;;;20.00;80.90;;;;;;5035414;28;20044;-70
2022/08/10 07:38:24;;;;;;;0.00;0.00;;;20.00;81.10;;;;;;5034556;28;20504;-68
2022/08/10 07:40:51;;;;;;;0.08;0.08;;;20.00;80.90;;;;;;5026658;28;20037;-68
2022/08/10 07:43:22;;;;;;;0.00;0.00;;;20.00;80.80;;;;;;5036099;28;20033;-70
2022/08/10 07:45:48;;;;;;;0.00;0.00;;;20.00;80.60;;;;;;5027303;28;20084;-70
2022/08/10 07:48:32;;;;;;;0.28;0.28;;;20.10;80.80;;;;;;5028428;28;20061;-69
2022/08/10 07:51:00;;;;;;;0.00;0.00;;;20.10;80.90;;;;;;5027937;28;20040;-71
2022/08/10 07:53:31;;;;;;;0.00;0.00;;;20.10;80.70;;;;;;5029316;28;20120;-70
2022/08/10 07:55:59;;;;;;;0.00;0.00;;;20.10;80.70;;;;;;4995276;28;20069;-71
2022/08/10 07:58:30;;;;;;;0.00;0.00;;;20.10;80.60;;;;;;5045492;28;20084;-73
2022/08/10 08:00:57;;;;;;;0.00;0.00;;;20.10;80.50;;;;;;5029209;28;20046;-73
2022/08/10 08:03:24;;;;;;;0.00;0.00;;;20.20;80.20;;;;;;5028161;28;20086;-72
2022/08/10 08:05:51;;;;;;;0.00;0.00;;;20.10;80.20;;;;;;5032077;28;20045;-72
2022/08/10 08:08:19;;;;;;;0.00;0.00;;;20.20;80.30;;;;;;5031267;28;20125;-72
2022/08/10 08:10:45;;;;;;;0.20;0.20;;;20.20;80.20;;;;;;5029192;28;20045;-71
2022/08/10 08:13:12;;;;;;;0.00;0.00;;;20.20;79.90;;;;;;5014284;28;20041;-72
2022/08/10 08:15:39;;;;;;;0.00;0.00;;;20.20;79.90;;;;;;5029342;28;20046;-72
2022/08/10 08:18:07;;;;;;;0.00;0.00;;;20.30;79.90;;;;;;5027600;28;20059;-71
2022/08/10 08:20:34;;;;;;;0.00;0.00;;;20.30;79.70;;;;;;5010791;28;20050;-72
2022/08/10 08:23:00;;;;;;;0.00;0.00;;;20.40;79.80;;;;;;5028057;28;20053;-72
2022/08/10 08:25:26;;;;;;;0.10;0.10;;;20.50;79.70;;;;;;5028920;28;20049;-72
2022/08/10 08:27:55;;;;;;;0.00;0.00;;;20.50;79.30;;;;;;5027663;28;20048;-72
2022/08/10 08:30:22;;;;;;;0.00;0.00;;;20.50;79.20;;;;;;5048586;28;20049;-70
2022/08/10 08:33:06;;;;;;;0.00;0.00;;;20.60;79.30;;;;;;5026526;28;20175;-71
2022/08/10 08:35:33;;;;;;;0.00;0.00;;;20.60;79.10;;;;;;5028942;28;20521;-71
2022/08/10 08:37:59;;;;;;;0.00;0.00;;;20.70;78.60;;;;;;5007087;28;20049;-71
2022/08/10 08:40:38;;;;;;;0.00;0.00;;;20.80;78.40;;;;;;5048420;28;20086;-73
2022/08/10 08:43:22;;;;;;;0.20;0.20;;;20.70;77.90;;;;;;5046965;28;20505;-72
2022/08/10 08:46:13;;;;;;;0.00;0.00;;;20.80;77.70;;;;;;5052639;28;20080;-71
2022/08/10 08:49:01;;;;;;;0.00;0.00;;;20.80;77.70;;;;;;5049053;28;20077;-72
2022/08/10 08:51:50;;;;;;;0.00;0.00;;;21.00;78.00;;;;;;5051298;28;20619;-71
2022/08/10 08:54:34;;;;;;;0.00;0.00;;;21.00;77.90;;;;;;5011669;28;20136;-71
2022/08/10 08:57:33;;;;;;;0.00;0.00;;;21.10;77.70;;;;;;5025165;28;20445;-72
2022/08/10 09:00:06;;;;;;;0.10;0.10;;;21.20;77.70;;;;;;5017012;28;20052;-72
2022/08/10 09:03:06;;;;;;;0.00;0.00;;;21.30;77.70;;;;;;5034210;28;20045;-72
2022/08/10 09:05:50;;;;;;;0.00;0.00;;;21.30;77.40;;;;;;5052257;28;20088;-69
2022/08/10 09:08:34;;;;;;;0.00;0.00;;;21.40;76.70;;;;;;5036656;28;20095;-71
2022/08/10 09:11:35;;;;;;;0.00;0.00;;;21.50;76.50;;;;;;5024611;28;20050;-71
2022/08/10 09:14:29;;;;;;;0.00;0.00;;;21.60;76.60;;;;;;5004976;28;20046;-71
2022/08/10 09:17:05;;;;;;;0.00;0.00;;;21.60;76.40;;;;;;5027916;28;20140;-71
2022/08/10 09:19:42;;;;;;;0.05;0.05;;;21.70;76.30;;;;;;5012513;28;20046;-71
2022/08/10 09:22:17;;;;;;;0.00;0.00;;;21.70;76.10;;;;;;5020107;28;20041;-70
2022/08/10 09:25:11;;;;;;;0.03;0.03;;;21.80;76.10;;;;;;5020760;28;20099;-71
2022/08/10 09:27:44;;;;;;;0.00;0.00;;;21.80;75.80;;;;;;5031039;28;20055;-70
2022/08/10 09:30:15;;;;;;;0.00;0.00;;;21.90;75.80;;;;;;4994747;28;20049;-70
2022/08/10 09:32:55;;;;;;;0.00;0.00;;;22.00;75.40;;;;;;5012286;28;20050;-71
2022/08/10 09:35:26;;;;;;;0.00;0.00;;;22.00;75.10;;;;;;5012242;28;20042;-71
2022/08/10 09:38:18;;;;;;;0.00;0.00;;;22.10;75.10;;;;;;5011878;28;20085;-71
2022/08/10 09:40:51;;;;;;;0.00;0.00;;;22.20;74.90;;;;;;5007155;28;20124;-71
2022/08/10 09:43:29;;;;;;;0.00;0.00;;;22.30;75.00;;;;;;5031448;28;20546;-70
2022/08/10 09:46:04;;;;;;;0.00;0.00;;;22.40;74.80;;;;;;4997479;28;20045;-71
2022/08/10 09:48:33;;;;;;;0.00;0.00;;;22.40;73.20;;;;;;5031339;28;20493;-71
2022/08/10 09:51:12;;;;;;;0.00;0.00;;;22.50;73.60;;;;;;5031476;28;20064;-71
2022/08/10 09:53:54;;;;;;;0.10;0.10;;;22.50;72.90;;;;;;5014772;28;20064;-71
2022/08/10 09:56:39;;;;;;;0.00;0.00;;;22.50;72.30;;;;;;5031347;28;20041;-70
2022/08/10 09:59:29;;;;;;;0.00;0.00;;;22.50;72.50;;;;;;5031440;28;20465;-71
2022/08/10 10:02:07;;;;;;;0.00;0.00;;;22.60;72.80;;;;;;5027263;28;20056;-71
2022/08/10 10:05:00;;;;;;;0.08;0.08;;;22.70;72.30;;;;;;5003017;28;20046;-72
2022/08/10 10:07:29;;;;;;;0.00;0.00;;;22.80;71.90;;;;;;5031538;28;20525;-71
2022/08/10 10:10:02;;;;;;;0.80;0.80;;;22.80;71.40;;;;;;5031108;28;20049;-71
2022/08/10 10:12:53;;;;;;;0.00;0.00;;;22.90;71.40;;;;;;5029199;28;20640;-71
2022/08/10 10:15:46;;;;;;;0.00;0.00;;;23.00;71.30;;;;;;5020591;28;20589;-71
2022/08/10 10:18:56;;;;;;;0.00;0.00;;;23.00;71.20;;;;;;5006971;28;20443;-71
2022/08/10 10:21:33;;;;;;;0.00;0.00;;;23.10;71.10;;;;;;5022779;28;20179;-71
2022/08/10 10:24:23;;;;;;;0.00;0.00;;;23.10;71.10;;;;;;5020146;28;20037;-71
2022/08/10 10:26:56;;;;;;;0.00;0.00;;;23.20;71.00;;;;;;5011767;28;20049;-71
2022/08/10 10:29:37;;;;;;;0.00;0.00;;;23.30;70.50;;;;;;5023265;28;20280;-71
2022/08/10 10:32:16;;;;;;;0.00;0.00;;;23.40;70.50;;;;;;5015741;28;20099;-71
2022/08/10 10:35:01;;;;;;;0.00;0.00;;;23.50;70.40;;;;;;5019697;28;20052;-71
2022/08/10 10:37:29;;;;;;;0.00;0.00;;;23.50;69.80;;;;;;5019384;28;20045;-71
2022/08/10 10:39:57;;;;;;;0.00;0.00;;;23.50;70.10;;;;;;5016172;28;20033;-71
2022/08/10 10:42:34;;;;;;;0.00;0.00;;;23.60;69.70;;;;;;5019192;28;20124;-71
2022/08/10 10:45:13;;;;;;;0.00;0.00;;;23.70;70.00;;;;;;5020452;28;20095;-71
2022/08/10 10:48:20;;;;;;;0.00;0.00;;;23.70;69.70;;;;;;5016357;28;20081;-71
2022/08/10 10:51:07;;;;;;;0.00;0.00;;;23.80;69.10;;;;;;5019977;28;20081;-72
2022/08/10 10:53:44;;;;;;;0.00;0.00;;;23.80;69.30;;;;;;5022408;28;20085;-72
2022/08/10 10:56:33;;;;;;;0.00;0.00;;;23.90;69.00;;;;;;5018126;28;20041;-71
2022/08/10 10:59:51;;;;;;;0.00;0.00;;;23.90;67.70;;;;;;5024283;28;20037;-72
2022/08/10 11:02:39;;;;;;;0.00;0.00;;;24.00;67.80;;;;;;4987044;28;20046;-71
2022/08/10 11:05:31;;;;;;;0.00;0.00;;;24.00;67.70;;;;;;5032588;28;20095;-71
2022/08/10 11:08:21;;;;;;;0.00;0.00;;;24.10;67.30;;;;;;5019587;28;20124;-71
2022/08/10 11:10:54;;;;;;;0.00;0.00;;;24.30;65.60;;;;;;5023806;28;20049;-72
2022/08/10 11:13:26;;;;;;;0.00;0.00;;;24.40;66.40;;;;;;5022662;28;20111;-71
2022/08/10 11:16:16;;;;;;;0.00;0.00;;;24.50;67.00;;;;;;5017547;28;20042;-72
2022/08/10 11:19:08;;;;;;;0.00;0.00;;;24.50;66.60;;;;;;5014730;28;20038;-72
2022/08/10 11:22:11;;;;;;;0.00;0.00;;;24.50;64.60;;;;;;5004599;28;20052;-72
2022/08/10 11:24:43;;;;;;;0.00;0.00;;;24.50;64.00;;;;;;5014084;28;20046;-72
2022/08/10 11:27:33;;;;;;;0.00;0.00;;;24.70;64.80;;;;;;5015867;28;20049;-72
2022/08/10 11:30:11;;;;;;;0.00;0.00;;;24.80;65.30;;;;;;5018857;28;20104;-71
2022/08/10 11:33:07;;;;;;;0.00;0.00;;;24.80;64.00;;;;;;5017650;28;20037;-71
2022/08/10 11:35:43;;;;;;;0.00;0.00;;;24.80;64.20;;;;;;5021768;28;20065;-72
2022/08/10 11:38:36;;;;;;;0.00;0.00;;;24.90;62.60;;;;;;5022573;28;20179;-71
2022/08/10 11:41:40;;;;;;;0.00;0.00;;;25.00;63.40;;;;;;5023924;28;20140;-72
2022/08/10 11:44:28;;;;;;;0.00;0.00;;;25.00;62.50;;;;;;5007921;28;20045;-71
2022/08/10 11:46:57;;;;;;;0.00;0.00;;;25.00;63.10;;;;;;4999247;28;20548;-71
2022/08/10 11:49:34;;;;;;;0.00;0.00;;;25.00;61.60;;;;;;5021199;28;20116;-72
2022/08/10 11:52:09;;;;;;;0.00;0.00;;;25.10;63.00;;;;;;5016495;28;20366;-72
2022/08/10 11:54:45;;;;;;;0.00;0.00;;;25.20;62.60;;;;;;5031609;28;20053;-71
2022/08/10 11:57:13;;;;;;;0.00;0.00;;;25.30;61.70;;;;;;5032277;28;20041;-71
2022/08/10 11:59:55;;;;;;;0.00;0.00;;;25.40;62.40;;;;;;5029954;28;20049;-71
2022/08/10 12:02:24;;;;;;;0.00;0.00;;;25.50;61.70;;;;;;5030460;28;20487;-71
2022/08/10 12:05:06;;;;;;;0.00;0.00;;;25.60;61.60;;;;;;5028948;28;20095;-71
2022/08/10 12:07:33;;;;;;;0.00;0.00;;;25.70;61.60;;;;;;5029974;28;20528;-71
2022/08/10 12:09:59;;;;;;;0.00;0.00;;;25.80;61.90;;;;;;5048040;28;20041;-71
2022/08/10 12:12:29;;;;;;;0.00;0.00;;;25.80;58.90;;;;;;5040396;28;20081;-71
2022/08/10 12:15:07;;;;;;;0.00;0.00;;;25.90;61.10;;;;;;5049054;28;20082;-72
2022/08/10 12:17:39;;;;;;;0.08;0.08;;;26.00;59.60;;;;;;5035985;28;20513;-72
2022/08/10 12:20:16;;;;;;;0.00;0.00;;;26.00;58.90;;;;;;5016106;28;20050;-72
2022/08/10 12:23:09;;;;;;;0.20;0.20;;;25.90;58.40;;;;;;5020283;28;20041;-72
2022/08/10 12:25:54;;;;;;;0.00;0.00;;;26.00;59.40;;;;;;5015597;28;20050;-72
2022/08/10 12:28:27;;;;;;;0.00;0.00;;;26.10;59.10;;;;;;5015204;28;20380;-71
2022/08/10 12:30:57;;;;;;;0.00;0.00;;;26.20;59.40;;;;;;5029755;28;20041;-72
2022/08/10 12:33:33;;;;;;;0.00;0.00;;;26.20;57.70;;;;;;5015305;28;20045;-71
2022/08/10 12:36:05;;;;;;;0.00;0.00;;;26.20;56.70;;;;;;4998927;28;20045;-71
2022/08/10 12:39:04;;;;;;;0.00;0.00;;;26.20;56.80;;;;;;5033481;28;20045;-71
2022/08/10 12:41:38;;;;;;;0.00;0.00;;;26.20;56.40;;;;;;5033246;28;20069;-71
2022/08/10 12:44:32;;;;;;;11.27;0.32;;;26.30;55.00;;;;;;5032889;28;20067;-71
2022/08/10 12:47:24;;;;;;;0.00;0.00;;;26.50;56.70;;;;;;5031896;28;20083;-71
2022/08/10 12:50:01;;;;;;;0.00;0.00;;;26.60;56.40;;;;;;5042522;28;20045;-71
2022/08/10 12:52:31;;;;;;;0.00;0.00;;;26.60;56.20;;;;;;5036966;28;20085;-71
2022/08/10 12:55:01;;;;;;;0.00;0.00;;;26.80;56.90;;;;;;5044391;28;20119;-71
2022/08/10 12:57:28;;;;;;;0.00;0.00;;;26.90;57.30;;;;;;5033108;28;21681;-70
2022/08/10 13:00:00;;;;;;;0.00;0.00;;;26.90;56.60;;;;;;5032875;28;20030;-71
2022/08/10 13:02:29;;;;;;;0.00;0.00;;;27.00;55.30;;;;;;5014147;28;20050;-72
2022/08/10 13:04:58;;;;;;;0.10;0.10;;;27.10;53.80;;;;;;5031861;28;20486;-72
2022/08/10 13:09:07;;;;;;;0.00;0.00;;;27.10;55.40;;;;;;5032274;28;20045;-79
2022/08/10 13:10:43;;;;;;;0.00;0.00;;;27.10;54.30;;;;;;5032289;28;20060;-66
2022/08/10 13:13:13;;;;;;;0.00;0.00;;;27.20;55.00;;;;;;5031380;28;20042;-65
2022/08/10 13:15:44;;;;;;;0.00;0.00;;;27.20;54.80;;;;;;5032376;28;20048;-66
2022/08/10 13:18:11;;;;;;;0.00;0.00;;;27.20;54.50;;;;;;5033316;28;20041;-66
2022/08/10 13:20:39;;;;;;;0.00;0.00;;;27.30;52.30;;;;;;5047688;28;20482;-66